Time;durP1;ratioP1;P1;durP2;ratioP2;P2;SDS_P1;SDS_P2;PMS_P1;PMS_P2;Temp;Humidity;BMP_temperature;BMP_pressure;BME280_temperature;BME280_humidity;BME280_pressure;Samples;Min_cycle;Max_cycle;Signal;HPM_P1;HPM_P2
2022/12/31 00:01:28;;;;;;;;;0.00;0.00;;;;;21.23;43.15;100347.69;5068523;28;45403;-47
2022/12/31 00:03:54;;;;;;;;;0.00;0.00;;;;;21.28;43.37;100371.97;5073091;28;46042;-51
2022/12/31 00:06:22;;;;;;;;;0.00;0.00;;;;;21.25;43.20;100351.06;5067627;28;45178;-48
2022/12/31 00:08:49;;;;;;;;;0.00;0.00;;;;;21.25;43.64;100369.53;5059513;28;45179;-53
2022/12/31 00:11:15;;;;;;;;;0.00;0.00;;;;;21.19;43.54;100354.13;5058385;28;45569;-49
2022/12/31 00:13:42;;;;;;;;;0.00;0.00;;;;;21.24;43.32;100380.19;5058403;28;46829;-50
2022/12/31 00:16:13;;;;;;;;;2.00;0.00;;;;;21.22;43.68;100364.44;5058572;28;45946;-49
2022/12/31 00:18:42;;;;;;;;;1.00;0.00;;;;;21.22;43.32;100379.44;5058981;28;45223;-49
2022/12/31 00:21:09;;;;;;;;;0.00;0.00;;;;;21.20;43.62;100374.28;5058358;28;45344;-48
2022/12/31 00:23:35;;;;;;;;;0.00;0.00;;;;;21.20;43.88;100371.63;5057713;28;46404;-47
2022/12/31 00:26:25;;;;;;;;;0.00;0.00;;;;;21.19;43.92;100384.88;5057422;28;45458;-51
2022/12/31 00:28:52;;;;;;;;;0.00;0.00;;;;;21.17;43.97;100379.72;5057833;28;45248;-52
2022/12/31 00:31:24;;;;;;;;;0.00;0.00;;;;;21.16;43.55;100381.53;5058209;28;45264;-53
2022/12/31 00:33:50;;;;;;;;;0.00;0.00;;;;;21.16;43.85;100391.22;5057679;28;45370;-49
2022/12/31 00:36:20;;;;;;;;;0.00;0.00;;;;;21.15;43.50;100390.38;5057943;28;45288;-50
2022/12/31 00:38:47;;;;;;;;;0.00;0.00;;;;;21.15;43.61;100393.03;5058522;28;45422;-52
2022/12/31 00:41:14;;;;;;;;;0.00;0.00;;;;;21.13;43.71;100400.16;5057968;28;45368;-49
2022/12/31 00:43:39;;;;;;;;;0.00;0.00;;;;;21.09;43.71;100374.13;5065023;28;46556;-52
2022/12/31 00:46:05;;;;;;;;;1.00;0.00;;;;;21.14;43.91;100393.97;5060997;28;45240;-49
2022/12/31 00:48:32;;;;;;;;;0.00;0.00;;;;;21.09;43.82;100389.94;5058303;28;45411;-49
2022/12/31 00:50:57;;;;;;;;;0.25;0.00;;;;;21.13;43.65;100392.25;5058225;28;45332;-52
2022/12/31 00:53:24;;;;;;;;;0.00;0.00;;;;;21.13;43.63;100400.16;5039010;28;48634;-50
2022/12/31 00:55:49;;;;;;;;;0.00;0.00;;;;;21.13;43.82;100399.31;5057667;28;45319;-50
2022/12/31 00:58:15;;;;;;;;;0.00;0.00;;;;;21.11;43.77;100388.88;5057638;28;45419;-50
2022/12/31 01:00:41;;;;;;;;;0.00;0.00;;;;;21.12;43.87;100395.84;5057230;28;45363;-50
2022/12/31 01:03:06;;;;;;;;;0.00;0.00;;;;;21.05;43.77;100386.66;5057375;28;46296;-50
2022/12/31 01:05:33;;;;;;;;;0.00;0.00;;;;;21.06;43.71;100398.03;5057814;28;45340;-52
2022/12/31 01:07:59;;;;;;;;;0.00;0.00;;;;;21.05;43.74;100399.84;5058266;28;45335;-53
2022/12/31 01:11:28;;;;;;;;;0.00;0.00;;;;;21.10;44.04;100402.16;5064540;28;45340;-53
2022/12/31 01:13:20;;;;;;;;;0.00;0.00;;;;;21.09;43.59;100403.09;5057740;28;46077;-50
2022/12/31 01:15:45;;;;;;;;;0.00;0.00;;;;;21.09;44.12;100403.09;5057343;28;45320;-49
2022/12/31 01:18:10;;;;;;;;;1.00;0.00;;;;;21.09;44.12;100424.19;5056722;28;45265;-49
2022/12/31 01:20:41;;;;;;;;;0.00;0.00;;;;;21.03;43.88;100395.59;5059500;28;45514;-51
2022/12/31 01:23:08;;;;;;;;;0.00;0.00;;;;;21.01;44.07;100396.53;5072889;28;45381;-53
2022/12/31 01:25:35;;;;;;;;;0.00;0.00;;;;;21.03;44.23;100390.31;5057212;28;45669;-50
2022/12/31 01:28:01;;;;;;;;;0.00;0.00;;;;;21.01;43.76;100407.06;5057298;28;45282;-51
2022/12/31 01:30:26;;;;;;;;;0.75;0.00;;;;;21.07;43.71;100428.72;5057595;28;45666;-52
2022/12/31 01:32:51;;;;;;;;;0.00;0.00;;;;;21.00;43.90;100420.34;5057714;28;66617;-53
2022/12/31 01:35:17;;;;;;;;;0.00;0.00;;;;;21.06;44.01;100427.84;5063999;28;64502;-54
2022/12/31 01:37:43;;;;;;;;;1.75;1.00;;;;;21.05;44.11;100425.31;5057468;28;45380;-53
2022/12/31 01:40:08;;;;;;;;;0.00;0.00;;;;;21.05;44.29;100441.13;5056846;28;45307;-52
2022/12/31 01:42:33;;;;;;;;;0.00;0.00;;;;;21.05;43.92;100449.03;5056450;28;46084;-49
2022/12/31 01:44:59;;;;;;;;;0.00;0.00;;;;;21.05;43.89;100446.41;5056786;28;45434;-51
2022/12/31 01:47:36;;;;;;;;;0.00;0.00;;;;;21.05;44.01;100462.19;5056669;28;45415;-48
2022/12/31 01:50:31;;;;;;;;;1.50;0.00;;;;;21.04;43.91;100449.97;5060149;28;45252;-45
2022/12/31 01:53:00;;;;;;;;;0.00;0.00;;;;;21.04;43.82;100460.50;5073405;28;45359;-50
2022/12/31 01:55:41;;;;;;;;;0.00;0.00;;;;;21.03;44.08;100448.28;5056903;28;45617;-46
2022/12/31 01:58:30;;;;;;;;;0.00;0.00;;;;;21.03;44.06;100454.41;5056720;28;45279;-49
2022/12/31 02:00:57;;;;;;;;;0.00;0.00;;;;;21.03;44.16;100458.81;5057301;28;45429;-52
2022/12/31 02:03:25;;;;;;;;;0.00;0.00;;;;;21.01;43.95;100459.75;5067216;28;46697;-53
2022/12/31 02:06:09;;;;;;;;;0.00;0.00;;;;;21.01;44.09;100472.94;5061049;28;45568;-47
2022/12/31 02:08:36;;;;;;;;;0.00;0.00;;;;;20.99;44.20;100466.94;5056708;28;45300;-48
2022/12/31 02:11:17;;;;;;;;;0.00;0.00;;;;;21.01;44.22;100466.81;5056852;28;45224;-48
2022/12/31 02:13:42;;;;;;;;;2.50;0.00;;;;;20.96;44.06;100463.63;5060056;28;46405;-51
2022/12/31 02:16:17;;;;;;;;;0.00;0.00;;;;;20.98;44.11;100465.25;5082823;27;44714;-49
2022/12/31 02:18:57;;;;;;;;;0.00;0.00;;;;;20.95;44.00;100446.13;5076047;28;45323;-49
2022/12/31 02:21:41;;;;;;;;;1.00;0.00;;;;;21.00;44.25;100471.22;5056791;28;45217;-50
2022/12/31 02:24:27;;;;;;;;;0.00;0.00;;;;;20.99;44.24;100461.66;5055802;28;46225;-47
2022/12/31 02:27:05;;;;;;;;;0.00;0.00;;;;;20.97;44.21;100470.59;5055772;28;45245;-52
2022/12/31 02:30:15;;;;;;;;;1.00;0.00;;;;;20.94;44.37;100469.00;5056430;28;45178;-48
2022/12/31 02:33:02;;;;;;;;;0.00;0.00;;;;;20.99;44.26;100482.75;4954970;28;45306;-49
2022/12/31 02:35:45;;;;;;;;;0.00;0.00;;;;;20.98;44.31;100485.44;5055736;28;46184;-50
2022/12/31 02:38:16;;;;;;;;;1.00;0.00;;;;;20.97;44.61;100487.25;5055982;28;45213;-48
2022/12/31 02:40:42;;;;;;;;;0.00;0.00;;;;;20.96;44.25;100488.19;5063065;28;45469;-48
2022/12/31 02:43:07;;;;;;;;;0.50;0.00;;;;;20.96;44.20;100495.25;5069604;28;45331;-55
2022/12/31 02:45:37;;;;;;;;;1.00;0.00;;;;;20.96;44.53;100495.25;5055221;28;66444;-46
2022/12/31 02:48:14;;;;;;;;;1.00;0.00;;;;;20.96;44.49;100500.50;5056253;28;45308;-53
2022/12/31 02:50:58;;;;;;;;;1.00;0.00;;;;;20.89;44.20;100492.13;5058958;28;45434;-51
2022/12/31 02:53:38;;;;;;;;;0.00;0.00;;;;;20.95;44.27;100498.81;5041576;28;45422;-49
2022/12/31 02:56:07;;;;;;;;;0.00;0.00;;;;;20.95;44.30;100504.94;5041239;28;48871;-50
2022/12/31 03:04:36;;;;;;;;;0.25;0.00;;;;;20.94;44.21;100521.69;5059853;28;45341;-47
2022/12/31 03:07:07;;;;;;;;;0.00;0.00;;;;;20.93;44.63;100490.19;5059551;28;45369;-49
2022/12/31 03:09:34;;;;;;;;;0.00;0.00;;;;;20.93;44.36;100501.56;5074625;28;45318;-54
2022/12/31 03:14:44;;;;;;;;;0.00;0.00;;;;;20.93;44.23;100511.25;5060638;28;45354;-51
2022/12/31 03:17:10;;;;;;;;;0.00;0.00;;;;;20.93;44.57;100506.81;5059744;28;46059;-47
2022/12/31 03:22:28;;;;;;;;;0.00;0.00;;;;;20.92;44.48;100515.66;5064011;28;45336;-51
2022/12/31 03:27:54;;;;;;;;;0.00;0.00;;;;;20.91;44.59;100503.44;5059771;28;45814;-49
2022/12/31 03:30:21;;;;;;;;;0.00;0.00;;;;;20.91;44.24;100518.41;5059445;28;45422;-50
2022/12/31 03:32:47;;;;;;;;;0.00;0.00;;;;;20.90;44.02;100520.19;5059296;28;45260;-50
2022/12/31 03:35:14;;;;;;;;;0.00;0.00;;;;;20.85;44.27;100523.09;5058962;28;45305;-50
2022/12/31 03:37:40;;;;;;;;;0.50;0.00;;;;;20.84;44.50;100504.75;5059985;28;45247;-50
2022/12/31 03:40:09;;;;;;;;;0.00;0.00;;;;;20.89;44.40;100522.91;5067586;28;45236;-50
2022/12/31 03:42:34;;;;;;;;;0.00;0.00;;;;;20.89;44.38;100522.91;5083399;28;44686;-49
2022/12/31 03:45:00;;;;;;;;;0.00;0.00;;;;;20.83;44.36;100510.97;5061663;28;45358;-48
2022/12/31 03:47:25;;;;;;;;;0.00;0.00;;;;;20.85;44.54;100519.63;5058939;28;47148;-52
2022/12/31 03:49:51;;;;;;;;;0.00;0.00;;;;;20.88;44.44;100519.44;5057699;28;45904;-49
2022/12/31 03:52:16;;;;;;;;;0.00;0.00;;;;;20.88;44.47;100518.59;5059097;28;45443;-50
2022/12/31 03:54:41;;;;;;;;;0.00;0.00;;;;;20.87;44.38;100517.75;5059472;28;45347;-51
2022/12/31 03:57:07;;;;;;;;;0.00;0.00;;;;;20.84;44.57;100528.47;5040837;28;46033;-52
2022/12/31 03:59:32;;;;;;;;;0.00;0.00;;;;;20.87;44.85;100533.56;5058342;28;62481;-48
2022/12/31 04:01:57;;;;;;;;;0.00;0.00;;;;;20.86;44.53;100516.06;5078107;28;44680;-47
2022/12/31 04:04:22;;;;;;;;;0.00;0.00;;;;;20.85;44.68;100515.19;5063430;28;45244;-48
2022/12/31 04:06:49;;;;;;;;;1.25;0.00;;;;;20.85;44.62;100520.47;5058404;28;46395;-47
2022/12/31 04:09:14;;;;;;;;;0.00;0.00;;;;;20.82;44.27;100514.53;5058958;28;45508;-50
2022/12/31 04:11:39;;;;;;;;;1.00;0.00;;;;;20.84;44.30;100510.03;5059388;28;45388;-52
2022/12/31 04:14:05;;;;;;;;;2.00;0.00;;;;;20.85;44.56;100517.00;5059071;28;45608;-56
2022/12/31 04:16:31;;;;;;;;;0.00;0.00;;;;;20.84;44.49;100512.66;5058714;28;46950;-53
2022/12/31 04:18:56;;;;;;;;;3.00;0.00;;;;;20.79;44.53;100509.44;5058660;28;45302;-54
2022/12/31 04:21:22;;;;;;;;;0.00;0.00;;;;;20.85;44.80;100514.38;5058484;28;45356;-52
2022/12/31 04:23:47;;;;;;;;;0.00;0.00;;;;;20.83;44.22;100489.91;5058944;28;45469;-54
2022/12/31 04:26:12;;;;;;;;;0.00;0.00;;;;;20.82;44.85;100498.75;5058481;28;45398;-51
2022/12/31 04:28:37;;;;;;;;;0.00;0.00;;;;;20.84;44.82;100488.97;5058183;28;45327;-56
2022/12/31 04:31:03;;;;;;;;;1.00;0.00;;;;;20.84;44.46;100497.69;5058888;28;45418;-51
2022/12/31 04:33:28;;;;;;;;;0.00;0.00;;;;;20.83;44.27;100522.38;5057984;28;45486;-52
2022/12/31 04:36:00;;;;;;;;;0.00;0.00;;;;;20.80;44.51;100508.53;5058051;28;46965;-54
2022/12/31 04:38:25;;;;;;;;;1.00;0.00;;;;;20.81;44.77;100521.63;5058755;28;45717;-50
2022/12/31 04:41:33;;;;;;;;;0.00;0.00;;;;;20.78;44.25;100526.22;5058712;28;45305;-53
2022/12/31 04:43:39;;;;;;;;;0.00;0.00;;;;;20.82;44.30;100530.34;5048213;28;45837;-54
2022/12/31 04:46:04;;;;;;;;;1.50;0.25;;;;;20.80;44.69;100537.50;5058765;28;46887;-49
2022/12/31 04:48:30;;;;;;;;;1.00;0.00;;;;;20.82;44.63;100527.72;5058672;28;45288;-56
2022/12/31 04:50:55;;;;;;;;;0.00;0.00;;;;;20.81;44.36;100529.50;5040365;28;53302;-50
2022/12/31 04:53:20;;;;;;;;;0.00;0.00;;;;;20.81;44.36;100523.38;5065767;28;45438;-54
2022/12/31 04:55:46;;;;;;;;;1.00;0.00;;;;;20.81;44.51;100520.75;5073679;28;45311;-54
2022/12/31 04:58:11;;;;;;;;;0.00;0.00;;;;;20.80;44.30;100530.44;5071627;28;65211;-53
2022/12/31 05:00:36;;;;;;;;;0.00;0.00;;;;;20.80;44.84;100532.22;5068728;28;58769;-54
2022/12/31 05:03:01;;;;;;;;;0.00;0.00;;;;;20.80;44.86;100526.94;5070549;28;44848;-51
2022/12/31 05:05:27;;;;;;;;;1.75;0.00;;;;;20.79;44.78;100527.91;5053387;28;48321;-57
2022/12/31 05:07:52;;;;;;;;;0.00;0.00;;;;;20.79;44.56;100552.47;5073147;28;52372;-54
2022/12/31 05:10:17;;;;;;;;;0.00;0.00;;;;;20.77;44.63;100543.81;5070108;28;45232;-58
2022/12/31 05:12:43;;;;;;;;;0.00;0.00;;;;;20.79;44.76;100551.59;5069694;28;55022;-56
2022/12/31 05:15:08;;;;;;;;;0.00;0.00;;;;;20.78;44.51;100550.75;5071256;28;55896;-50
2022/12/31 05:17:33;;;;;;;;;0.00;0.00;;;;;20.76;44.60;100541.28;5068221;28;45262;-51
2022/12/31 05:19:59;;;;;;;;;0.00;0.00;;;;;20.76;44.60;100560.53;5073968;28;45217;-56
2022/12/31 05:22:30;;;;;;;;;0.00;0.00;;;;;20.76;44.80;100552.63;5073003;28;44910;-51
2022/12/31 05:24:56;;;;;;;;;0.00;0.00;;;;;20.77;44.97;100559.59;5069973;28;45307;-49
2022/12/31 05:27:23;;;;;;;;;0.25;0.25;;;;;20.77;44.85;100561.41;5061142;28;45687;-48
2022/12/31 05:29:48;;;;;;;;;0.25;0.25;;;;;20.76;44.54;100559.72;5060555;28;45383;-49
2022/12/31 05:32:13;;;;;;;;;0.67;0.00;;;;;20.70;44.60;100561.72;5076292;28;55673;-50
2022/12/31 05:34:39;;;;;;;;;2.00;0.00;;;;;20.75;44.87;100565.91;5062430;28;53094;-54
2022/12/31 05:37:04;;;;;;;;;0.25;0.25;;;;;20.75;44.86;100573.81;5060573;28;45167;-48
2022/12/31 05:39:29;;;;;;;;;2.00;0.25;;;;;20.75;45.01;100576.44;5058945;28;45194;-46
2022/12/31 05:41:55;;;;;;;;;1.67;0.00;;;;;20.68;44.96;100550.44;5058516;28;50589;-51
2022/12/31 05:44:20;;;;;;;;;0.00;0.00;;;;;20.69;45.08;100561.84;5057683;28;66327;-53
2022/12/31 05:46:48;;;;;;;;;0.00;0.00;;;;;20.74;44.73;100574.72;5077384;28;46982;-53
2022/12/31 05:49:13;;;;;;;;;0.00;0.00;;;;;20.68;44.51;100568.03;5077552;28;45338;-47
2022/12/31 05:51:39;;;;;;;;;1.00;0.00;;;;;20.68;44.85;100566.22;5077454;28;56426;-52
2022/12/31 05:54:04;;;;;;;;;0.00;0.00;;;;;20.68;44.85;100566.22;5066351;28;45530;-53
2022/12/31 05:56:30;;;;;;;;;0.25;0.00;;;;;20.74;44.94;100577.34;5065811;28;45235;-50
2022/12/31 05:58:55;;;;;;;;;0.50;0.50;;;;;20.70;44.84;100560.91;5059969;28;54656;-51
2022/12/31 06:01:20;;;;;;;;;0.00;0.00;;;;;20.73;44.41;100578.28;5066401;28;55914;-50
2022/12/31 06:03:46;;;;;;;;;0.75;0.75;;;;;20.73;44.53;100573.03;5077634;28;46283;-51
2022/12/31 06:06:11;;;;;;;;;0.00;0.00;;;;;20.73;44.62;100570.38;5041047;28;45384;-53
2022/12/31 06:08:36;;;;;;;;;0.00;0.00;;;;;20.68;44.45;100565.41;5058587;28;45324;-57
2022/12/31 06:11:02;;;;;;;;;0.75;0.75;;;;;20.71;44.75;100565.22;5058252;28;45537;-50
2022/12/31 06:13:27;;;;;;;;;0.00;0.00;;;;;20.72;44.74;100569.56;5056717;28;46232;-48
2022/12/31 06:15:53;;;;;;;;;0.25;0.25;;;;;20.64;44.94;100567.38;5056829;28;45375;-49
2022/12/31 06:18:18;;;;;;;;;0.00;0.00;;;;;20.72;44.58;100587.13;5057024;28;45281;-50
2022/12/31 06:20:44;;;;;;;;;0.75;0.00;;;;;20.70;44.40;100572.25;5057149;28;45407;-49
2022/12/31 06:23:09;;;;;;;;;0.50;0.50;;;;;20.70;44.54;100590.69;5056861;28;49035;-47
2022/12/31 06:25:35;;;;;;;;;1.00;1.00;;;;;20.70;44.56;100590.69;5059522;28;69597;-48
2022/12/31 06:28:02;;;;;;;;;0.00;0.00;;;;;20.68;44.83;100592.56;5060887;28;45765;-52
2022/12/31 06:30:27;;;;;;;;;1.00;0.00;;;;;20.63;44.45;100586.75;5061089;28;45410;-52
2022/12/31 06:32:53;;;;;;;;;1.75;0.00;;;;;20.70;44.75;100603.03;5060452;28;46719;-49
2022/12/31 06:35:19;;;;;;;;;0.50;0.25;;;;;20.63;44.92;100589.38;5061121;28;45865;-50
2022/12/31 06:37:44;;;;;;;;;2.00;0.00;;;;;20.67;44.78;100600.56;5060768;28;45386;-49
2022/12/31 06:40:10;;;;;;;;;1.25;1.00;;;;;20.66;44.94;100594.47;5075111;28;45648;-54
2022/12/31 06:42:36;;;;;;;;;1.75;0.25;;;;;20.64;44.41;100601.59;5065910;28;45938;-49
2022/12/31 06:45:01;;;;;;;;;0.00;0.00;;;;;20.68;44.69;100602.28;5060273;28;48060;-49
2022/12/31 06:47:26;;;;;;;;;0.00;0.00;;;;;20.62;44.46;100600.84;5060234;28;49777;-48
2022/12/31 06:49:52;;;;;;;;;0.00;0.00;;;;;20.67;44.90;100609.31;5060089;28;45364;-49
2022/12/31 06:52:17;;;;;;;;;1.00;0.00;;;;;20.66;44.91;100623.44;5060347;28;46077;-51
2022/12/31 06:54:43;;;;;;;;;1.00;1.00;;;;;20.67;44.41;100619.84;5060733;28;45327;-53
2022/12/31 06:57:08;;;;;;;;;0.50;0.50;;;;;20.66;44.78;100620.81;5060445;28;45254;-46
2022/12/31 06:59:35;;;;;;;;;0.00;0.00;;;;;20.66;44.98;100638.38;5070086;28;45335;-50
2022/12/31 07:02:22;;;;;;;;;1.00;0.25;;;;;20.65;45.20;100632.28;5068900;28;45212;-49
2022/12/31 07:05:08;;;;;;;;;4.00;1.00;;;;;20.65;45.06;100632.28;5077658;28;45345;-55
2022/12/31 07:07:40;;;;;;;;;1.00;1.00;;;;;20.66;44.81;100635.75;5082722;28;44788;-51
2022/12/31 07:10:34;;;;;;;;;1.25;0.75;;;;;20.65;44.97;100629.63;5081701;28;44789;-53
2022/12/31 07:13:26;;;;;;;;;2.00;0.00;;;;;20.64;44.93;100627.94;5081211;28;45302;-52
2022/12/31 07:16:10;;;;;;;;;0.25;0.25;;;;;20.58;45.18;100615.13;5063494;28;45260;-49
2022/12/31 07:19:03;;;;;;;;;1.00;1.00;;;;;20.64;45.15;100621.81;5064333;28;45339;-52
2022/12/31 07:21:39;;;;;;;;;1.00;1.00;;;;;20.63;44.66;100636.78;5083697;28;44730;-48
2022/12/31 07:24:07;;;;;;;;;1.00;0.00;;;;;20.62;44.66;100624.53;5082651;28;44971;-55
2022/12/31 07:26:38;;;;;;;;;2.00;1.00;;;;;20.63;45.01;100620.13;5062174;28;45899;-49
2022/12/31 07:29:39;;;;;;;;;0.25;0.00;;;;;20.63;44.88;100630.66;5059584;28;45275;-49
2022/12/31 07:32:13;;;;;;;;;0.00;0.00;;;;;20.62;45.02;100644.75;5071234;27;45413;-50
2022/12/31 07:34:49;;;;;;;;;0.00;0.00;;;;;20.63;45.21;100646.44;5084582;27;46321;-51
2022/12/31 07:37:42;;;;;;;;;1.50;1.00;;;;;20.63;45.12;100641.19;5067664;28;45461;-57
2022/12/31 07:40:14;;;;;;;;;1.25;1.00;;;;;20.62;44.68;100661.41;5058788;28;45174;-53
2022/12/31 07:43:00;;;;;;;;;2.00;1.00;;;;;20.60;45.01;100660.66;5059374;28;45438;-53
2022/12/31 07:45:28;;;;;;;;;0.50;0.50;;;;;20.61;44.82;100651.81;5058029;28;49718;-51
2022/12/31 07:47:54;;;;;;;;;0.00;0.00;;;;;20.61;44.70;100675.50;5058591;28;45761;-49
2022/12/31 07:50:19;;;;;;;;;0.50;0.50;;;;;20.61;45.12;100679.94;5058718;28;45189;-55
2022/12/31 07:52:45;;;;;;;;;1.25;1.25;;;;;20.55;44.58;100674.09;5058988;28;45221;-50
2022/12/31 07:55:11;;;;;;;;;1.00;1.00;;;;;20.61;44.93;100699.22;5059437;28;47477;-50
2022/12/31 07:57:50;;;;;;;;;0.50;0.50;;;;;20.55;44.69;100689.03;5070851;28;45469;-50
2022/12/31 08:00:16;;;;;;;;;2.00;1.00;;;;;20.61;44.70;100711.53;5071388;28;44820;-53
2022/12/31 08:02:59;;;;;;;;;1.25;1.00;;;;;20.60;44.83;100708.03;5062785;28;45738;-56
2022/12/31 08:06:06;;;;;;;;;1.50;0.00;;;;;20.60;44.94;100689.59;5058741;28;46338;-49
2022/12/31 08:08:51;;;;;;;;;1.00;1.00;;;;;20.61;44.77;100701.00;5058245;28;45281;-50
2022/12/31 08:11:41;;;;;;;;;0.25;0.25;;;;;20.60;45.13;100700.16;5058269;28;45302;-52
2022/12/31 08:14:12;;;;;;;;;1.00;1.00;;;;;20.60;44.61;100691.41;5058460;28;45341;-55
2022/12/31 08:16:37;;;;;;;;;2.00;0.00;;;;;20.59;45.21;100679.19;5057769;28;47450;-53
2022/12/31 08:19:03;;;;;;;;;2.00;1.00;;;;;20.59;44.89;100698.44;5057999;28;45300;-47
2022/12/31 08:22:04;;;;;;;;;2.00;1.00;;;;;20.58;44.84;100699.38;5057928;28;45380;-48
2022/12/31 08:24:59;;;;;;;;;1.00;1.00;;;;;20.59;45.13;100708.97;5017574;28;45588;-52
2022/12/31 08:27:41;;;;;;;;;2.00;1.00;;;;;20.59;44.76;100721.31;5057360;28;45383;-52
2022/12/31 08:30:11;;;;;;;;;3.25;1.50;;;;;20.52;44.77;100702.38;5057924;28;45950;-51
2022/12/31 08:32:42;;;;;;;;;2.00;0.50;;;;;20.52;44.74;100708.47;5058420;28;45381;-53
2022/12/31 10:39:15;;;;;;;;;2.50;2.50;;;;;20.27;45.10;100747.66;5356529;22;45835;-46
2022/12/31 10:42:17;;;;;;;;;2.25;2.25;;;;;20.22;44.86;100732.16;5076509;28;45192;-50
2022/12/31 10:45:14;;;;;;;;;3.25;2.00;;;;;20.22;44.92;100725.09;5077877;28;45275;-46
2022/12/31 10:48:29;;;;;;;;;4.25;3.75;;;;;20.29;45.11;100740.50;5086398;28;45345;-46
2022/12/31 10:51:28;;;;;;;;;2.00;2.00;;;;;20.28;45.08;100737.06;5008675;28;46156;-45
2022/12/31 10:54:08;;;;;;;;;3.00;1.50;;;;;20.27;44.95;100727.44;5089845;28;45919;-45
2022/12/31 10:57:09;;;;;;;;;2.75;2.50;;;;;20.28;44.77;100721.25;5088942;28;44686;-46
2022/12/31 11:00:03;;;;;;;;;6.25;3.50;;;;;20.17;45.01;100694.69;5077690;28;45468;-48
2022/12/31 11:02:49;;;;;;;;;4.00;2.25;;;;;20.28;44.68;100707.25;5078578;28;45484;-48
2022/12/31 11:05:48;;;;;;;;;3.25;2.25;;;;;20.27;44.76;100724.00;5058336;28;45445;-48
2022/12/31 11:08:48;;;;;;;;;3.00;3.00;;;;;20.28;44.84;100710.72;5075398;28;45370;-47
2022/12/31 11:11:19;;;;;;;;;4.00;3.50;;;;;20.29;44.61;100719.47;5079244;28;45297;-49
2022/12/31 11:14:23;;;;;;;;;5.75;4.00;;;;;20.30;44.47;100713.25;5079940;28;45210;-47
2022/12/31 11:17:11;;;;;;;;;5.00;4.00;;;;;20.24;44.72;100709.19;5079904;28;45712;-46
2022/12/31 11:19:50;;;;;;;;;3.75;3.00;;;;;20.29;44.96;100707.16;5079914;28;45289;-45
2022/12/31 11:22:45;;;;;;;;;3.50;3.00;;;;;20.29;44.81;100709.81;5065000;27;45585;-51
2022/12/31 11:25:10;;;;;;;;;3.25;2.00;;;;;20.29;44.80;100701.03;5108313;27;46253;-46
2022/12/31 11:27:57;;;;;;;;;2.00;2.00;;;;;20.28;44.50;100700.19;5112076;27;45585;-51
2022/12/31 11:30:53;;;;;;;;;3.25;3.25;;;;;20.29;44.46;100698.41;5100151;27;45385;-50
2022/12/31 11:33:39;;;;;;;;;4.00;3.00;;;;;20.27;44.72;100708.19;5100723;27;45340;-52
2022/12/31 11:36:55;;;;;;;;;5.25;3.00;;;;;20.27;44.67;100711.66;5099563;27;45403;-46
2022/12/31 11:39:48;;;;;;;;;3.25;2.00;;;;;20.27;44.28;100709.03;5058420;27;45568;-52
2022/12/31 11:42:25;;;;;;;;;2.00;2.00;;;;;20.25;44.47;100697.72;5108989;27;45472;-48
2022/12/31 11:45:11;;;;;;;;;4.00;3.00;;;;;20.26;44.65;100701.22;5100810;27;45238;-55
2022/12/31 11:47:55;;;;;;;;;3.50;2.75;;;;;20.25;44.52;100705.63;5099456;27;47301;-44
2022/12/31 11:50:35;;;;;;;;;4.00;3.00;;;;;20.24;44.70;100696.91;5098330;27;45431;-51
2022/12/31 11:53:23;;;;;;;;;4.00;3.00;;;;;20.26;44.59;100696.81;5076303;28;45473;-46
2022/12/31 11:56:06;;;;;;;;;4.00;3.00;;;;;20.28;44.52;100707.25;5078215;28;45647;-44
2022/12/31 11:58:32;;;;;;;;;2.25;2.25;;;;;20.21;44.30;100698.88;5080968;27;47154;-52
2022/12/31 12:01:12;;;;;;;;;2.25;2.25;;;;;20.19;44.34;100684.94;5084740;27;45406;-50
2022/12/31 12:03:42;;;;;;;;;6.00;3.00;;;;;20.26;44.18;100691.53;5079206;28;45342;-51
2022/12/31 12:06:11;;;;;;;;;2.00;2.00;;;;;20.24;44.14;100677.63;5079036;28;45327;-58
2022/12/31 12:08:37;;;;;;;;;3.25;3.00;;;;;20.24;44.06;100678.47;5079268;28;47475;-58
2022/12/31 12:11:06;;;;;;;;;2.75;2.75;;;;;20.24;44.35;100673.22;5080999;28;45283;-59
2022/12/31 12:13:32;;;;;;;;;6.00;3.25;;;;;20.24;44.47;100667.94;5079123;28;45419;-54
2022/12/31 12:16:01;;;;;;;;;5.25;3.25;;;;;20.24;44.43;100667.94;5086848;28;45489;-45
2022/12/31 12:18:33;;;;;;;;;3.00;3.00;;;;;20.23;43.99;100655.72;5099075;28;46186;-45
2022/12/31 12:21:11;;;;;;;;;2.75;2.75;;;;;20.14;43.62;100647.50;5093097;28;45329;-54
2022/12/31 12:23:38;;;;;;;;;4.25;4.25;;;;;20.26;44.11;100662.59;5084067;28;45392;-49
2022/12/31 12:26:04;;;;;;;;;2.25;2.00;;;;;20.06;43.75;100626.91;5095886;28;45362;-46
2022/12/31 12:28:42;;;;;;;;;4.50;3.00;;;;;19.98;44.20;100611.56;5093489;28;45177;-46
2022/12/31 12:31:18;;;;;;;;;2.25;2.25;;;;;20.25;43.92;100647.72;5078302;28;45414;-53
2022/12/31 12:33:44;;;;;;;;;4.50;3.25;;;;;20.05;44.21;100612.88;5078995;28;45394;-45
2022/12/31 12:36:13;;;;;;;;;5.50;2.50;;;;;20.25;44.33;100642.47;5079237;28;45545;-44
2022/12/31 12:38:39;;;;;;;;;3.00;3.00;;;;;20.28;43.65;100638.84;5079460;28;46240;-42
2022/12/31 12:41:09;;;;;;;;;3.00;3.00;;;;;20.18;43.63;100625.34;5078696;28;45244;-47
2022/12/31 12:43:36;;;;;;;;;3.25;3.00;;;;;20.08;44.01;100602.19;5078770;28;45473;-48
2022/12/31 12:46:16;;;;;;;;;3.00;3.00;;;;;20.07;43.42;100587.34;5078755;28;45331;-46
2022/12/31 12:48:46;;;;;;;;;2.75;2.75;;;;;20.26;43.73;100617.84;5078259;28;45370;-53
2022/12/31 12:51:46;;;;;;;;;4.00;3.25;;;;;20.28;43.71;100610.72;5078895;28;45955;-49
2022/12/31 12:55:06;;;;;;;;;3.00;3.00;;;;;20.29;43.73;100601.91;5090439;28;45325;-46
2022/12/31 12:57:48;;;;;;;;;5.25;4.00;;;;;20.29;43.71;100603.66;5010369;28;44759;-45
2022/12/31 13:00:20;;;;;;;;;4.00;4.00;;;;;20.30;43.47;100602.72;5082857;28;46677;-50
2022/12/31 13:03:01;;;;;;;;;3.50;2.00;;;;;20.32;44.01;100599.09;5079041;28;45447;-50
2022/12/31 13:06:04;;;;;;;;;5.50;4.00;;;;;20.31;43.59;100596.53;5078899;28;45352;-52
2022/12/31 13:08:59;;;;;;;;;3.50;3.50;;;;;20.33;43.78;100600.78;5077480;28;45600;-42
2022/12/31 13:11:50;;;;;;;;;1.75;1.75;;;;;20.34;43.63;100599.81;5078408;28;46885;-44
2022/12/31 13:14:23;;;;;;;;;4.75;2.00;;;;;20.35;43.63;100598.88;5077338;28;45441;-44
2022/12/31 13:17:03;;;;;;;;;3.25;2.75;;;;;20.36;43.27;100599.75;5076990;28;45363;-46
2022/12/31 13:19:51;;;;;;;;;4.00;2.75;;;;;20.30;43.44;100600.09;5077694;28;45242;-49
2022/12/31 13:22:38;;;;;;;;;3.00;3.00;;;;;20.31;43.59;100591.25;5077868;28;46372;-44
2022/12/31 13:25:21;;;;;;;;;3.00;2.75;;;;;20.36;43.40;100607.66;5099675;28;45179;-47
2022/12/31 13:27:50;;;;;;;;;4.25;3.75;;;;;20.31;43.46;100599.16;5099462;28;45362;-45
2022/12/31 13:30:26;;;;;;;;;4.00;3.25;;;;;20.34;43.53;100607.72;5081616;28;45552;-47
2022/12/31 13:32:59;;;;;;;;;2.25;2.25;;;;;20.35;43.83;100613.84;5078759;28;45456;-49
2022/12/31 13:35:51;;;;;;;;;3.00;3.00;;;;;20.36;43.38;100633.97;5078397;28;45407;-52
2022/12/31 13:38:26;;;;;;;;;2.50;2.50;;;;;20.35;43.19;100614.69;5077898;28;45306;-50
2022/12/31 13:41:13;;;;;;;;;4.50;2.75;;;;;20.35;43.56;100621.75;5078257;28;45386;-48
2022/12/31 13:43:48;;;;;;;;;4.00;3.00;;;;;20.34;43.14;100614.78;5077697;28;45576;-48
2022/12/31 13:46:43;;;;;;;;;2.25;1.75;;;;;20.31;43.25;100604.44;5080993;28;45433;-47
2022/12/31 13:49:18;;;;;;;;;2.75;2.00;;;;;20.35;43.63;100609.41;5085523;28;45385;-48
2022/12/31 13:52:02;;;;;;;;;4.25;2.00;;;;;20.34;43.71;100627.94;5078192;28;45626;-47
2022/12/31 13:54:37;;;;;;;;;3.75;3.00;;;;;20.33;43.43;100608.69;5077463;28;46426;-50
2022/12/31 13:57:30;;;;;;;;;3.75;3.00;;;;;20.34;43.26;100610.34;5077333;28;45797;-49
2022/12/31 14:00:00;;;;;;;;;6.00;4.00;;;;;20.34;43.48;100606.88;5077164;28;45400;-52
2022/12/31 14:02:51;;;;;;;;;2.75;2.00;;;;;20.29;43.51;100601.91;5077654;28;45448;-50
2022/12/31 14:05:25;;;;;;;;;3.25;1.25;;;;;20.29;43.47;100601.91;5077113;28;46691;-53
2022/12/31 14:07:59;;;;;;;;;3.25;3.00;;;;;20.35;43.30;100612.06;5076920;28;45764;-49
2022/12/31 14:10:47;;;;;;;;;2.00;2.00;;;;;20.29;43.04;100601.03;5077640;28;45412;-50
2022/12/31 14:13:40;;;;;;;;;6.00;3.00;;;;;20.35;43.37;100611.22;5079215;28;45223;-47